Victory, North Carolina
Current Conditions -  °F | °C
As of 7:54 PM on Thursday 27 Nov 2014 (Local Time) from KAKH Reporting Station
Clear Clear  
Wind Chill: 35°   Ceiling: Unl
Heat Index: 41°   Visibility: 10mi
Dew Point: 21°   Wind: 9mph
Humidity: 45%   Direction: 320°NW
Pressure: 30.24"   Gusts: NA
Location:  35.2205°N, 81.2501°W
Report Text: KAKH 280054Z AUTO 32008KT 10SM CLR 05/M06 A3024 RMK AO2 SLP247 T00501061
Loading
Personal Weather Stations






























Interactive Weather Map New forecast layout! Learn more

10-Day Weather Forecast

Advertisements
Track Severe Weather on mobile